sensor_id;sensor_type;location;lat;lon;timestamp;P1;durP1;ratioP1;P2;durP2;ratioP2
60426;SDS011;46274;47.168;27.604;2023-05-10T00:05:48;19.57;;;7.33;;
60426;SDS011;46274;47.168;27.604;2023-05-10T00:11:51;17.07;;;7.67;;
60426;SDS011;46274;47.168;27.604;2023-05-10T00:17:56;15.37;;;7.03;;
60426;SDS011;46274;47.168;27.604;2023-05-10T00:23:58;11.90;;;6.50;;
60426;SDS011;46274;47.168;27.604;2023-05-10T00:30:10;12.20;;;4.80;;
60426;SDS011;46274;47.168;27.604;2023-05-10T00:36:14;11.03;;;4.90;;
60426;SDS011;46274;47.168;27.604;2023-05-10T00:42:17;13.80;;;6.13;;
60426;SDS011;46274;47.168;27.604;2023-05-10T00:48:26;12.17;;;6.17;;
60426;SDS011;46274;47.168;27.604;2023-05-10T00:54:38;10.87;;;4.47;;
60426;SDS011;46274;47.168;27.604;2023-05-10T01:00:41;8.23;;;3.90;;
60426;SDS011;46274;47.168;27.604;2023-05-10T01:06:49;10.77;;;5.17;;
60426;SDS011;46274;47.168;27.604;2023-05-10T01:12:52;9.17;;;5.40;;
60426;SDS011;46274;47.168;27.604;2023-05-10T01:18:59;10.37;;;4.77;;
60426;SDS011;46274;47.168;27.604;2023-05-10T01:25:11;8.10;;;4.80;;
60426;SDS011;46274;47.168;27.604;2023-05-10T01:31:26;7.87;;;3.60;;
60426;SDS011;46274;47.168;27.604;2023-05-10T01:37:59;6.70;;;3.30;;
60426;SDS011;46274;47.168;27.604;2023-05-10T01:50:29;6.83;;;3.33;;
60426;SDS011;46274;47.168;27.604;2023-05-10T01:56:33;9.33;;;4.73;;
60426;SDS011;46274;47.168;27.604;2023-05-10T02:02:51;11.80;;;3.80;;
60426;SDS011;46274;47.168;27.604;2023-05-10T02:08:56;9.50;;;3.27;;
60426;SDS011;46274;47.168;27.604;2023-05-10T02:14:59;10.70;;;4.23;;
60426;SDS011;46274;47.168;27.604;2023-05-10T02:21:06;9.53;;;4.83;;
60426;SDS011;46274;47.168;27.604;2023-05-10T02:27:11;8.07;;;3.70;;
60426;SDS011;46274;47.168;27.604;2023-05-10T02:33:19;7.83;;;3.67;;
60426;SDS011;46274;47.168;27.604;2023-05-10T02:39:25;6.37;;;3.07;;
60426;SDS011;46274;47.168;27.604;2023-05-10T02:45:33;6.60;;;3.37;;
60426;SDS011;46274;47.168;27.604;2023-05-10T02:51:40;9.67;;;4.93;;
60426;SDS011;46274;47.168;27.604;2023-05-10T02:57:51;5.60;;;3.20;;
60426;SDS011;46274;47.168;27.604;2023-05-10T03:03:59;9.73;;;4.03;;
60426;SDS011;46274;47.168;27.604;2023-05-10T03:10:12;12.90;;;5.00;;
60426;SDS011;46274;47.168;27.604;2023-05-10T03:16:27;9.43;;;4.53;;
60426;SDS011;46274;47.168;27.604;2023-05-10T03:23:07;12.63;;;6.10;;
60426;SDS011;46274;47.168;27.604;2023-05-10T03:29:17;12.90;;;4.67;;
60426;SDS011;46274;47.168;27.604;2023-05-10T03:35:36;14.47;;;6.10;;
60426;SDS011;46274;47.168;27.604;2023-05-10T03:41:55;14.63;;;5.50;;
60426;SDS011;46274;47.168;27.604;2023-05-10T03:48:10;13.80;;;4.50;;
60426;SDS011;46274;47.168;27.604;2023-05-10T03:54:28;8.93;;;4.07;;
60426;SDS011;46274;47.168;27.604;2023-05-10T04:00:37;11.43;;;4.70;;
60426;SDS011;46274;47.168;27.604;2023-05-10T04:06:45;9.33;;;4.53;;
60426;SDS011;46274;47.168;27.604;2023-05-10T04:12:48;11.57;;;4.87;;
60426;SDS011;46274;47.168;27.604;2023-05-10T04:18:51;11.00;;;5.00;;
60426;SDS011;46274;47.168;27.604;2023-05-10T04:24:53;20.63;;;6.13;;
60426;SDS011;46274;47.168;27.604;2023-05-10T04:31:12;25.27;;;12.20;;
60426;SDS011;46274;47.168;27.604;2023-05-10T04:37:15;18.27;;;8.03;;
60426;SDS011;46274;47.168;27.604;2023-05-10T04:43:21;11.10;;;6.27;;
60426;SDS011;46274;47.168;27.604;2023-05-10T04:49:23;15.10;;;5.20;;
60426;SDS011;46274;47.168;27.604;2023-05-10T04:55:39;8.63;;;4.83;;
60426;SDS011;46274;47.168;27.604;2023-05-10T05:01:41;10.80;;;5.03;;
60426;SDS011;46274;47.168;27.604;2023-05-10T05:14:15;10.00;;;4.60;;
60426;SDS011;46274;47.168;27.604;2023-05-10T05:20:26;11.87;;;5.40;;
60426;SDS011;46274;47.168;27.604;2023-05-10T05:26:37;11.63;;;4.37;;
60426;SDS011;46274;47.168;27.604;2023-05-10T05:32:42;11.27;;;4.73;;
60426;SDS011;46274;47.168;27.604;2023-05-10T05:38:56;8.10;;;4.73;;
60426;SDS011;46274;47.168;27.604;2023-05-10T05:52:40;17.07;;;4.87;;
60426;SDS011;46274;47.168;27.604;2023-05-10T05:58:50;10.57;;;4.37;;
60426;SDS011;46274;47.168;27.604;2023-05-10T06:05:00;17.90;;;5.03;;
60426;SDS011;46274;47.168;27.604;2023-05-10T06:11:10;8.23;;;4.10;;
60426;SDS011;46274;47.168;27.604;2023-05-10T06:17:13;8.53;;;3.50;;
60426;SDS011;46274;47.168;27.604;2023-05-10T06:23:29;7.17;;;3.57;;
60426;SDS011;46274;47.168;27.604;2023-05-10T06:29:41;9.63;;;4.47;;
60426;SDS011;46274;47.168;27.604;2023-05-10T06:35:46;13.47;;;4.87;;
60426;SDS011;46274;47.168;27.604;2023-05-10T06:41:57;11.67;;;4.43;;
60426;SDS011;46274;47.168;27.604;2023-05-10T06:47:59;13.73;;;5.27;;
60426;SDS011;46274;47.168;27.604;2023-05-10T06:54:05;7.40;;;3.87;;
60426;SDS011;46274;47.168;27.604;2023-05-10T07:00:09;13.80;;;4.43;;
60426;SDS011;46274;47.168;27.604;2023-05-10T07:06:11;13.90;;;5.37;;
60426;SDS011;46274;47.168;27.604;2023-05-10T07:12:33;10.33;;;4.63;;
60426;SDS011;46274;47.168;27.604;2023-05-10T07:18:41;10.93;;;4.30;;
60426;SDS011;46274;47.168;27.604;2023-05-10T07:24:43;8.67;;;3.10;;
60426;SDS011;46274;47.168;27.604;2023-05-10T07:31:02;7.87;;;3.30;;
60426;SDS011;46274;47.168;27.604;2023-05-10T07:37:17;6.97;;;2.83;;
60426;SDS011;46274;47.168;27.604;2023-05-10T07:43:20;7.87;;;2.40;;
60426;SDS011;46274;47.168;27.604;2023-05-10T07:49:22;13.63;;;3.17;;
60426;SDS011;46274;47.168;27.604;2023-05-10T07:55:49;8.20;;;3.47;;
60426;SDS011;46274;47.168;27.604;2023-05-10T08:02:34;10.63;;;2.90;;
60426;SDS011;46274;47.168;27.604;2023-05-10T08:08:47;6.93;;;2.40;;
60426;SDS011;46274;47.168;27.604;2023-05-10T08:15:02;4.93;;;2.33;;
60426;SDS011;46274;47.168;27.604;2023-05-10T08:21:05;6.13;;;2.20;;
60426;SDS011;46274;47.168;27.604;2023-05-10T08:27:08;6.53;;;2.50;;
60426;SDS011;46274;47.168;27.604;2023-05-10T08:33:21;8.20;;;2.20;;
60426;SDS011;46274;47.168;27.604;2023-05-10T08:39:24;4.27;;;2.13;;
60426;SDS011;46274;47.168;27.604;2023-05-10T08:45:37;8.63;;;2.27;;
60426;SDS011;46274;47.168;27.604;2023-05-10T08:51:44;3.97;;;1.50;;
60426;SDS011;46274;47.168;27.604;2023-05-10T08:57:59;4.40;;;1.80;;
60426;SDS011;46274;47.168;27.604;2023-05-10T09:04:09;2.33;;;1.80;;
60426;SDS011;46274;47.168;27.604;2023-05-10T09:10:12;7.43;;;3.00;;
60426;SDS011;46274;47.168;27.604;2023-05-10T09:16:15;6.00;;;1.97;;
60426;SDS011;46274;47.168;27.604;2023-05-10T09:22:25;6.27;;;1.63;;
60426;SDS011;46274;47.168;27.604;2023-05-10T09:28:31;4.00;;;1.60;;
60426;SDS011;46274;47.168;27.604;2023-05-10T09:34:34;3.77;;;1.53;;
60426;SDS011;46274;47.168;27.604;2023-05-10T09:40:52;3.27;;;1.70;;
60426;SDS011;46274;47.168;27.604;2023-05-10T09:47:06;3.90;;;1.47;;
60426;SDS011;46274;47.168;27.604;2023-05-10T09:53:14;3.03;;;1.40;;
60426;SDS011;46274;47.168;27.604;2023-05-10T09:59:18;5.87;;;1.60;;
60426;SDS011;46274;47.168;27.604;2023-05-10T10:05:32;4.03;;;1.67;;
60426;SDS011;46274;47.168;27.604;2023-05-10T10:11:36;12.73;;;5.97;;
60426;SDS011;46274;47.168;27.604;2023-05-10T10:17:40;13.40;;;5.20;;
60426;SDS011;46274;47.168;27.604;2023-05-10T10:23:50;6.60;;;2.30;;
60426;SDS011;46274;47.168;27.604;2023-05-10T10:30:07;8.47;;;2.50;;
60426;SDS011;46274;47.168;27.604;2023-05-10T10:36:16;6.17;;;2.20;;
60426;SDS011;46274;47.168;27.604;2023-05-10T10:42:43;9.70;;;2.47;;
60426;SDS011;46274;47.168;27.604;2023-05-10T10:48:51;4.53;;;2.07;;
60426;SDS011;46274;47.168;27.604;2023-05-10T10:55:21;11.23;;;2.50;;
60426;SDS011;46274;47.168;27.604;2023-05-10T11:01:33;4.90;;;2.23;;
60426;SDS011;46274;47.168;27.604;2023-05-10T11:07:51;4.83;;;1.93;;
60426;SDS011;46274;47.168;27.604;2023-05-10T11:14:04;5.73;;;2.07;;
60426;SDS011;46274;47.168;27.604;2023-05-10T11:20:10;3.60;;;2.07;;
60426;SDS011;46274;47.168;27.604;2023-05-10T11:26:25;6.10;;;2.57;;
60426;SDS011;46274;47.168;27.604;2023-05-10T11:32:38;4.20;;;2.10;;
60426;SDS011;46274;47.168;27.604;2023-05-10T11:38:49;11.10;;;2.23;;
60426;SDS011;46274;47.168;27.604;2023-05-10T11:44:54;5.97;;;1.67;;
60426;SDS011;46274;47.168;27.604;2023-05-10T11:50:58;7.43;;;2.53;;
60426;SDS011;46274;47.168;27.604;2023-05-10T11:57:03;4.67;;;1.73;;
60426;SDS011;46274;47.168;27.604;2023-05-10T12:03:11;4.40;;;2.03;;
60426;SDS011;46274;47.168;27.604;2023-05-10T12:09:24;6.00;;;2.00;;
60426;SDS011;46274;47.168;27.604;2023-05-10T12:15:44;5.23;;;2.40;;
60426;SDS011;46274;47.168;27.604;2023-05-10T12:21:52;4.03;;;1.83;;
60426;SDS011;46274;47.168;27.604;2023-05-10T12:27:57;4.57;;;1.90;;
60426;SDS011;46274;47.168;27.604;2023-05-10T12:34:07;5.57;;;2.00;;
60426;SDS011;46274;47.168;27.604;2023-05-10T12:40:24;3.80;;;1.77;;
60426;SDS011;46274;47.168;27.604;2023-05-10T12:46:33;5.83;;;1.57;;
60426;SDS011;46274;47.168;27.604;2023-05-10T12:52:37;7.20;;;1.60;;
60426;SDS011;46274;47.168;27.604;2023-05-10T12:58:39;4.50;;;2.00;;
60426;SDS011;46274;47.168;27.604;2023-05-10T13:04:44;11.43;;;1.90;;
60426;SDS011;46274;47.168;27.604;2023-05-10T13:10:51;3.30;;;1.83;;
60426;SDS011;46274;47.168;27.604;2023-05-10T13:16:56;11.93;;;1.80;;
60426;SDS011;46274;47.168;27.604;2023-05-10T13:23:01;7.53;;;1.90;;
60426;SDS011;46274;47.168;27.604;2023-05-10T13:29:19;4.10;;;1.73;;
60426;SDS011;46274;47.168;27.604;2023-05-10T13:35:22;3.33;;;2.07;;
60426;SDS011;46274;47.168;27.604;2023-05-10T13:41:25;3.23;;;1.53;;
60426;SDS011;46274;47.168;27.604;2023-05-10T13:47:27;4.23;;;1.73;;
60426;SDS011;46274;47.168;27.604;2023-05-10T13:53:42;7.90;;;2.23;;
60426;SDS011;46274;47.168;27.604;2023-05-10T13:59:45;8.00;;;1.83;;
60426;SDS011;46274;47.168;27.604;2023-05-10T14:05:51;4.03;;;1.70;;
60426;SDS011;46274;47.168;27.604;2023-05-10T14:12:02;3.03;;;2.00;;
60426;SDS011;46274;47.168;27.604;2023-05-10T14:18:05;4.73;;;1.90;;
60426;SDS011;46274;47.168;27.604;2023-05-10T14:24:07;3.50;;;1.73;;
60426;SDS011;46274;47.168;27.604;2023-05-10T14:30:10;4.87;;;1.57;;
60426;SDS011;46274;47.168;27.604;2023-05-10T14:36:16;8.27;;;1.73;;
60426;SDS011;46274;47.168;27.604;2023-05-10T14:42:24;3.50;;;1.60;;
60426;SDS011;46274;47.168;27.604;2023-05-10T14:48:28;5.37;;;1.80;;
60426;SDS011;46274;47.168;27.604;2023-05-10T14:54:31;7.40;;;1.80;;
60426;SDS011;46274;47.168;27.604;2023-05-10T15:00:34;2.67;;;1.80;;
60426;SDS011;46274;47.168;27.604;2023-05-10T15:06:40;3.47;;;1.53;;
60426;SDS011;46274;47.168;27.604;2023-05-10T15:12:53;5.13;;;1.90;;
60426;SDS011;46274;47.168;27.604;2023-05-10T15:18:55;3.20;;;2.10;;
60426;SDS011;46274;47.168;27.604;2023-05-10T15:25:00;3.37;;;1.87;;
60426;SDS011;46274;47.168;27.604;2023-05-10T15:31:04;3.13;;;1.70;;
60426;SDS011;46274;47.168;27.604;2023-05-10T15:37:07;3.03;;;1.70;;
60426;SDS011;46274;47.168;27.604;2023-05-10T15:43:11;7.07;;;2.37;;
60426;SDS011;46274;47.168;27.604;2023-05-10T15:49:13;5.83;;;1.60;;
60426;SDS011;46274;47.168;27.604;2023-05-10T15:55:16;4.90;;;1.87;;
60426;SDS011;46274;47.168;27.604;2023-05-10T16:01:19;4.97;;;1.83;;
60426;SDS011;46274;47.168;27.604;2023-05-10T16:07:33;3.45;;;1.70;;
60426;SDS011;46274;47.168;27.604;2023-05-10T16:13:38;4.97;;;1.70;;
60426;SDS011;46274;47.168;27.604;2023-05-10T16:19:41;2.87;;;1.60;;
60426;SDS011;46274;47.168;27.604;2023-05-10T16:25:43;3.10;;;1.30;;
60426;SDS011;46274;47.168;27.604;2023-05-10T16:31:47;3.50;;;1.67;;
60426;SDS011;46274;47.168;27.604;2023-05-10T16:37:52;5.77;;;1.80;;
60426;SDS011;46274;47.168;27.604;2023-05-10T16:43:57;5.77;;;1.60;;
60426;SDS011;46274;47.168;27.604;2023-05-10T16:50:02;1.83;;;1.13;;
60426;SDS011;46274;47.168;27.604;2023-05-10T16:56:06;3.93;;;1.90;;
60426;SDS011;46274;47.168;27.604;2023-05-10T17:02:08;5.60;;;2.20;;
60426;SDS011;46274;47.168;27.604;2023-05-10T17:08:13;10.03;;;4.00;;
60426;SDS011;46274;47.168;27.604;2023-05-10T17:14:19;17.57;;;9.57;;
60426;SDS011;46274;47.168;27.604;2023-05-10T17:20:27;29.97;;;12.97;;
60426;SDS011;46274;47.168;27.604;2023-05-10T17:26:36;18.10;;;11.73;;
60426;SDS011;46274;47.168;27.604;2023-05-10T17:32:39;12.20;;;7.20;;
60426;SDS011;46274;47.168;27.604;2023-05-10T17:38:48;11.70;;;6.70;;
60426;SDS011;46274;47.168;27.604;2023-05-10T17:44:51;9.93;;;5.20;;
60426;SDS011;46274;47.168;27.604;2023-05-10T17:50:55;13.93;;;6.17;;
60426;SDS011;46274;47.168;27.604;2023-05-10T17:57:00;47.60;;;17.60;;
60426;SDS011;46274;47.168;27.604;2023-05-10T18:03:07;44.17;;;17.53;;
60426;SDS011;46274;47.168;27.604;2023-05-10T18:09:16;20.43;;;9.87;;
60426;SDS011;46274;47.168;27.604;2023-05-10T18:15:23;13.40;;;5.93;;
60426;SDS011;46274;47.168;27.604;2023-05-10T18:21:26;15.70;;;5.17;;
60426;SDS011;46274;47.168;27.604;2023-05-10T18:27:29;10.00;;;4.00;;
60426;SDS011;46274;47.168;27.604;2023-05-10T18:33:31;12.50;;;5.33;;
60426;SDS011;46274;47.168;27.604;2023-05-10T18:39:37;21.13;;;10.30;;
60426;SDS011;46274;47.168;27.604;2023-05-10T18:45:42;17.90;;;6.50;;
60426;SDS011;46274;47.168;27.604;2023-05-10T18:51:54;17.50;;;8.27;;
60426;SDS011;46274;47.168;27.604;2023-05-10T18:57:59;48.80;;;32.20;;
60426;SDS011;46274;47.168;27.604;2023-05-10T19:04:02;105.43;;;62.07;;
60426;SDS011;46274;47.168;27.604;2023-05-10T19:10:04;45.23;;;28.40;;
60426;SDS011;46274;47.168;27.604;2023-05-10T19:16:12;31.10;;;19.50;;
60426;SDS011;46274;47.168;27.604;2023-05-10T19:22:23;25.13;;;15.53;;
60426;SDS011;46274;47.168;27.604;2023-05-10T19:28:54;28.77;;;12.13;;
60426;SDS011;46274;47.168;27.604;2023-05-10T19:35:12;23.37;;;10.73;;
60426;SDS011;46274;47.168;27.604;2023-05-10T19:41:16;30.60;;;12.13;;
60426;SDS011;46274;47.168;27.604;2023-05-10T19:47:29;21.03;;;10.33;;
60426;SDS011;46274;47.168;27.604;2023-05-10T19:53:40;14.50;;;5.87;;
60426;SDS011;46274;47.168;27.604;2023-05-10T19:59:49;19.00;;;8.27;;
60426;SDS011;46274;47.168;27.604;2023-05-10T20:05:54;11.30;;;5.57;;
60426;SDS011;46274;47.168;27.604;2023-05-10T20:11:57;26.93;;;11.60;;
60426;SDS011;46274;47.168;27.604;2023-05-10T20:18:05;34.33;;;12.80;;
60426;SDS011;46274;47.168;27.604;2023-05-10T20:24:08;27.33;;;12.77;;
60426;SDS011;46274;47.168;27.604;2023-05-10T20:30:15;26.87;;;11.13;;
60426;SDS011;46274;47.168;27.604;2023-05-10T20:36:20;19.10;;;9.87;;
60426;SDS011;46274;47.168;27.604;2023-05-10T20:42:30;23.97;;;10.73;;
60426;SDS011;46274;47.168;27.604;2023-05-10T20:48:39;35.30;;;16.53;;
60426;SDS011;46274;47.168;27.604;2023-05-10T20:54:45;24.87;;;12.67;;
60426;SDS011;46274;47.168;27.604;2023-05-10T21:00:54;14.03;;;7.33;;
60426;SDS011;46274;47.168;27.604;2023-05-10T21:07:00;15.00;;;7.20;;
60426;SDS011;46274;47.168;27.604;2023-05-10T21:13:14;18.70;;;9.63;;
60426;SDS011;46274;47.168;27.604;2023-05-10T21:19:19;30.43;;;13.60;;
60426;SDS011;46274;47.168;27.604;2023-05-10T21:25:23;16.53;;;7.90;;
60426;SDS011;46274;47.168;27.604;2023-05-10T21:31:28;14.33;;;7.20;;
60426;SDS011;46274;47.168;27.604;2023-05-10T21:37:32;19.67;;;8.80;;
60426;SDS011;46274;47.168;27.604;2023-05-10T21:43:48;14.23;;;6.87;;
60426;SDS011;46274;47.168;27.604;2023-05-10T21:49:50;21.63;;;9.57;;
60426;SDS011;46274;47.168;27.604;2023-05-10T21:55:53;28.90;;;10.50;;
60426;SDS011;46274;47.168;27.604;2023-05-10T22:02:01;23.43;;;10.53;;
60426;SDS011;46274;47.168;27.604;2023-05-10T22:08:04;21.43;;;10.80;;
60426;SDS011;46274;47.168;27.604;2023-05-10T22:14:21;15.17;;;6.47;;
60426;SDS011;46274;47.168;27.604;2023-05-10T22:20:40;16.40;;;7.07;;
60426;SDS011;46274;47.168;27.604;2023-05-10T22:26:48;28.17;;;12.63;;
60426;SDS011;46274;47.168;27.604;2023-05-10T22:32:51;28.27;;;13.03;;
60426;SDS011;46274;47.168;27.604;2023-05-10T22:39:00;25.87;;;11.97;;
60426;SDS011;46274;47.168;27.604;2023-05-10T22:45:25;34.07;;;13.63;;
60426;SDS011;46274;47.168;27.604;2023-05-10T22:51:30;20.33;;;10.43;;
60426;SDS011;46274;47.168;27.604;2023-05-10T22:57:38;25.33;;;11.87;;
60426;SDS011;46274;47.168;27.604;2023-05-10T23:03:41;19.97;;;9.17;;
60426;SDS011;46274;47.168;27.604;2023-05-10T23:09:55;15.13;;;6.63;;
60426;SDS011;46274;47.168;27.604;2023-05-10T23:15:57;24.83;;;10.23;;
60426;SDS011;46274;47.168;27.604;2023-05-10T23:22:11;19.70;;;10.00;;
60426;SDS011;46274;47.168;27.604;2023-05-10T23:28:18;22.10;;;10.17;;
60426;SDS011;46274;47.168;27.604;2023-05-10T23:34:22;13.20;;;7.30;;
60426;SDS011;46274;47.168;27.604;2023-05-10T23:40:51;12.20;;;5.77;;
60426;SDS011;46274;47.168;27.604;2023-05-10T23:46:54;14.90;;;6.87;;
60426;SDS011;46274;47.168;27.604;2023-05-10T23:52:56;16.00;;;8.27;;
60426;SDS011;46274;47.168;27.604;2023-05-10T23:59:01;11.50;;;4.67;;
